Terminal Aerodrome Forecast
Issued by NWS

Current Version | Previous Version | Text Only | Print | Product List | Glossary Off
Versions: 1 2 3 4 5 6 7 8 9 10 11 12 13 14

000
FTUS41 KPBZ 201700
TAFMGW
TAF
KMGW 201736Z 2018/2118 26009G19KT P6SM OVC035
     FM202300 25007KT P6SM BKN050
     FM210900 27005KT P6SM BKN250=

USA.gov is the U.S. government's official web portal to all federal, state and local government web resources and services.